createdAt,value
2022-08-11T00:00:21.096Z,2.47
2022-08-11T00:03:24.122Z,2.87
2022-08-11T00:06:49.158Z,2.80
2022-08-11T00:09:53.429Z,2.77
2022-08-11T00:12:58.216Z,2.80
2022-08-11T00:16:02.726Z,2.60
2022-08-11T00:19:05.909Z,2.90
2022-08-11T00:22:10.963Z,2.77
2022-08-11T00:25:15.817Z,2.70
2022-08-11T00:28:27.039Z,2.50
2022-08-11T00:31:32.804Z,2.80
2022-08-11T00:34:39.052Z,2.60
2022-08-11T00:37:49.521Z,2.90
2022-08-11T00:40:58.049Z,2.63
2022-08-11T00:44:13.585Z,2.67
2022-08-11T00:47:25.009Z,2.80
2022-08-11T00:50:40.358Z,2.80
2022-08-11T00:53:55.324Z,3.03
2022-08-11T00:57:36.151Z,3.20
2022-08-11T01:01:06.519Z,2.90
2022-08-11T01:04:46.145Z,2.97
2022-08-11T01:08:37.765Z,2.40
2022-08-11T01:12:16.348Z,2.37
2022-08-11T01:15:59.435Z,3.00
2022-08-11T01:20:46.043Z,3.10
2022-08-11T01:23:47.605Z,3.23
2022-08-11T01:27:19.364Z,3.10
2022-08-11T01:30:56.603Z,2.87
2022-08-11T01:34:52.716Z,3.30
2022-08-11T01:38:29.800Z,2.93
2022-08-11T01:42:23.229Z,2.80
2022-08-11T01:45:37.234Z,3.13
2022-08-11T01:48:45.058Z,2.70
2022-08-11T01:52:08.191Z,3.27
2022-08-11T01:55:24.153Z,2.87
2022-08-11T01:58:43.406Z,2.90
2022-08-11T02:02:45.945Z,2.97
2022-08-11T02:06:01.175Z,3.30
2022-08-11T02:09:14.122Z,3.03
2022-08-11T02:12:52.131Z,3.23
2022-08-11T02:16:05.835Z,3.33
2022-08-11T02:19:48.734Z,3.30
2022-08-11T02:24:00.521Z,3.30
2022-08-11T02:26:42.667Z,3.40
2022-08-11T02:30:04.927Z,3.47
2022-08-11T02:33:23.326Z,3.23
2022-08-11T02:36:35.579Z,3.17
2022-08-11T02:39:47.337Z,3.50
2022-08-11T02:43:10.140Z,3.50
2022-08-11T02:46:24.385Z,3.10
2022-08-11T02:49:59.975Z,3.40
2022-08-11T02:53:17.463Z,3.97
2022-08-11T02:56:31.036Z,3.60
2022-08-11T02:59:51.249Z,3.83
2022-08-11T03:03:17.468Z,3.73
2022-08-11T03:06:32.513Z,3.73
2022-08-11T03:09:48.213Z,3.33
2022-08-11T03:13:12.537Z,3.57
2022-08-11T03:16:46.240Z,3.63
2022-08-11T03:20:02.189Z,3.63
2022-08-11T03:23:19.387Z,3.77
2022-08-11T03:26:33.065Z,4.03
2022-08-11T03:29:41.899Z,3.30
2022-08-11T03:33:15.868Z,4.00
2022-08-11T03:37:15.254Z,3.80
2022-08-11T03:40:14.290Z,4.10
2022-08-11T03:43:28.713Z,3.97
2022-08-11T03:46:45.677Z,3.90
2022-08-11T03:50:03.114Z,4.30
2022-08-11T03:53:18.338Z,3.93
2022-08-11T03:56:47.985Z,3.73
2022-08-11T04:00:24.702Z,3.83
2022-08-11T04:04:03.489Z,4.10
2022-08-11T04:07:36.060Z,3.77
2022-08-11T04:11:06.615Z,3.80
2022-08-11T04:15:09.977Z,3.50
2022-08-11T04:18:41.926Z,3.87
2022-08-11T04:22:17.851Z,4.30
2022-08-11T04:25:58.574Z,4.70
2022-08-11T04:29:15.299Z,4.70
2022-08-11T04:32:40.167Z,4.93
2022-08-11T04:35:54.257Z,5.17
2022-08-11T04:39:11.282Z,5.30
2022-08-11T04:43:22.124Z,4.37
2022-08-11T04:46:45.717Z,4.97
2022-08-11T04:50:34.152Z,4.63
2022-08-11T04:54:09.648Z,4.87
2022-08-11T04:57:38.234Z,4.73
2022-08-11T05:01:11.451Z,4.83
2022-08-11T05:05:09.178Z,4.37
2022-08-11T05:08:46.951Z,4.97
2022-08-11T05:12:07.409Z,5.43
2022-08-11T05:15:32.101Z,5.13
2022-08-11T05:19:08.419Z,5.30
2022-08-11T05:22:32.771Z,4.80
2022-08-11T05:26:47.744Z,5.47
2022-08-11T05:29:57.652Z,5.30
2022-08-11T05:33:24.148Z,5.73
2022-08-11T05:36:32.088Z,5.57
2022-08-11T05:40:03.649Z,5.23
2022-08-11T05:43:31.634Z,5.37
2022-08-11T05:46:58.209Z,5.80
2022-08-11T05:50:19.270Z,5.60
2022-08-11T05:53:51.825Z,5.10
2022-08-11T05:56:59.515Z,5.73
2022-08-11T06:00:07.915Z,5.40
2022-08-11T06:03:12.196Z,5.53
2022-08-11T06:06:15.097Z,5.70
2022-08-11T06:09:25.867Z,5.80
2022-08-11T06:12:32.485Z,5.33
2022-08-11T06:15:44.686Z,5.67
2022-08-11T06:18:48.738Z,5.70
2022-08-11T06:21:53.207Z,5.93
2022-08-11T06:24:59.759Z,6.10
2022-08-11T06:28:06.294Z,5.33
2022-08-11T06:31:14.788Z,6.30
2022-08-11T06:34:34.112Z,5.77
2022-08-11T06:37:55.527Z,5.80
2022-08-11T06:41:25.716Z,5.67
2022-08-11T06:44:34.385Z,5.60
2022-08-11T06:47:37.713Z,6.00
2022-08-11T06:51:07.699Z,6.03
2022-08-11T06:54:13.529Z,6.70
2022-08-11T06:57:34.546Z,5.23
2022-08-11T07:00:39.215Z,5.30
2022-08-11T07:03:57.394Z,5.80
2022-08-11T07:07:44.854Z,5.53
2022-08-11T07:11:23.581Z,5.50
2022-08-11T07:14:46.594Z,5.53
2022-08-11T07:18:08.658Z,5.50
2022-08-11T07:22:01.365Z,6.10
2022-08-11T07:25:19.657Z,6.20
2022-08-11T07:28:43.543Z,6.27
2022-08-11T07:31:51.117Z,6.50
2022-08-11T07:35:00.602Z,5.80
2022-08-11T07:38:08.038Z,5.57
2022-08-11T07:41:12.183Z,5.13
2022-08-11T07:44:17.100Z,5.40
2022-08-11T07:47:37.792Z,5.40
2022-08-11T07:51:01.505Z,4.63
2022-08-11T07:54:16.533Z,4.73
2022-08-11T07:58:11.198Z,5.80
2022-08-11T08:01:21.613Z,5.40
2022-08-11T08:04:46.780Z,5.57
2022-08-11T08:08:09.513Z,7.13
2022-08-11T08:11:30.422Z,7.00
2022-08-11T08:14:51.910Z,5.50
2022-08-11T08:18:09.408Z,5.40
2022-08-11T08:21:21.106Z,5.80
2022-08-11T08:24:25.893Z,5.00
2022-08-11T08:27:29.099Z,5.10
2022-08-11T08:30:51.128Z,5.53
2022-08-11T08:33:55.189Z,4.93
2022-08-11T08:36:58.363Z,4.83
2022-08-11T08:40:03.073Z,4.83
2022-08-11T08:43:10.232Z,4.70
2022-08-11T08:46:15.084Z,5.00
2022-08-11T08:49:23.028Z,4.93
2022-08-11T08:52:32.026Z,4.97
2022-08-11T08:55:45.566Z,4.00
2022-08-11T08:58:51.796Z,4.10
2022-08-11T09:01:59.333Z,4.03
2022-08-11T09:05:03.880Z,3.70
2022-08-11T09:08:07.846Z,3.80
2022-08-11T09:11:30.187Z,3.87
2022-08-11T09:14:51.124Z,4.13
2022-08-11T09:18:03.676Z,4.60
2022-08-11T09:21:07.881Z,4.17
2022-08-11T09:24:28.902Z,4.17
2022-08-11T09:27:34.171Z,3.93
2022-08-11T09:30:38.088Z,4.13
2022-08-11T09:33:43.511Z,4.30
2022-08-11T09:37:04.583Z,4.33
2022-08-11T09:40:28.261Z,4.00
2022-08-11T09:43:51.831Z,4.10
2022-08-11T09:46:59.340Z,3.90
2022-08-11T09:50:03.685Z,4.63
2022-08-11T09:53:36.198Z,4.10
2022-08-11T09:56:48.574Z,4.37
2022-08-11T09:59:53.782Z,4.20
2022-08-11T10:03:19.044Z,3.83
2022-08-11T10:06:39.671Z,3.33
2022-08-11T10:09:48.916Z,3.90
2022-08-11T10:12:57.625Z,3.73
2022-08-11T10:16:15.426Z,4.20
2022-08-11T10:19:22.138Z,4.10
2022-08-11T10:22:43.091Z,3.40
2022-08-11T10:26:04.149Z,3.97
2022-08-11T10:29:33.449Z,3.80
2022-08-11T10:33:00.042Z,4.00
2022-08-11T10:36:06.022Z,3.90
2022-08-11T10:39:21.789Z,4.27
2022-08-11T10:42:57.469Z,4.27
2022-08-11T10:46:19.031Z,3.97
2022-08-11T10:49:34.458Z,4.23
2022-08-11T10:52:55.737Z,3.50
2022-08-11T10:56:17.582Z,3.67
2022-08-11T10:59:22.205Z,3.13
2022-08-11T11:02:27.191Z,4.30
2022-08-11T11:05:33.683Z,3.67
2022-08-11T11:08:58.836Z,3.33
2022-08-11T11:12:27.596Z,3.50
2022-08-11T11:15:49.989Z,4.13
2022-08-11T11:19:01.183Z,3.60
2022-08-11T11:22:20.261Z,3.43
2022-08-11T11:25:33.585Z,3.95
2022-08-11T11:29:05.230Z,3.70
2022-08-11T11:32:18.689Z,3.30
2022-08-11T11:35:32.103Z,3.77
2022-08-11T11:38:36.868Z,3.65
2022-08-11T11:41:40.132Z,4.43
2022-08-11T11:44:46.653Z,3.13
2022-08-11T11:47:52.545Z,3.38
2022-08-11T11:50:58.614Z,3.20
2022-08-11T11:54:05.010Z,3.75
2022-08-11T11:57:22.316Z,3.60
2022-08-11T12:00:43.588Z,3.97
2022-08-11T12:03:48.398Z,3.45
2022-08-11T12:06:52.242Z,3.10
2022-08-11T12:09:58.082Z,3.50
2022-08-11T12:13:20.569Z,3.40
2022-08-11T12:16:33.300Z,3.75
2022-08-11T12:19:39.046Z,3.72
2022-08-11T12:23:09.300Z,3.35
2022-08-11T12:26:37.239Z,3.38
2022-08-11T12:29:41.358Z,3.05
2022-08-11T12:32:46.945Z,3.30
2022-08-11T12:36:00.922Z,3.10
2022-08-11T12:39:23.093Z,3.33
2022-08-11T12:42:55.359Z,3.30
2022-08-11T12:46:01.832Z,3.22
2022-08-11T12:49:30.255Z,3.33
2022-08-11T12:52:44.053Z,3.38
2022-08-11T12:56:07.920Z,3.38
2022-08-11T12:59:30.020Z,2.90
2022-08-11T13:02:51.100Z,3.10
2022-08-11T13:05:56.996Z,3.25
2022-08-11T13:09:01.509Z,3.50
2022-08-11T13:12:22.733Z,3.25
2022-08-11T13:15:27.456Z,3.88
2022-08-11T13:18:31.001Z,3.38
2022-08-11T13:21:34.016Z,3.50
2022-08-11T13:24:37.549Z,3.22
2022-08-11T13:27:41.216Z,3.58
2022-08-11T13:31:04.431Z,2.90
2022-08-11T13:34:09.082Z,2.90
2022-08-11T13:37:14.338Z,2.95
2022-08-11T13:40:27.768Z,2.70
2022-08-11T13:43:37.665Z,2.45
2022-08-11T13:46:44.372Z,2.60
2022-08-11T13:49:48.025Z,2.80
2022-08-11T13:52:53.348Z,2.83
2022-08-11T13:55:56.899Z,2.63
2022-08-11T13:59:02.291Z,2.70
2022-08-11T14:02:28.395Z,2.55
2022-08-11T14:05:37.838Z,2.67
2022-08-11T14:08:46.785Z,2.25
2022-08-11T14:12:21.392Z,2.70
2022-08-11T14:15:31.266Z,2.55
2022-08-11T14:18:36.951Z,2.30
2022-08-11T14:22:06.560Z,2.35
2022-08-11T14:25:12.397Z,2.05
2022-08-11T14:28:34.462Z,2.50
2022-08-11T14:31:41.049Z,2.40
2022-08-11T14:34:46.128Z,2.03
2022-08-11T14:37:49.515Z,2.17
2022-08-11T14:41:11.681Z,2.38
2022-08-11T14:44:32.797Z,2.05
2022-08-11T14:47:38.120Z,2.13
2022-08-11T14:50:42.851Z,2.00
2022-08-11T14:53:52.110Z,2.05
2022-08-11T14:57:03.156Z,2.08
2022-08-11T15:00:08.709Z,1.92
2022-08-11T15:03:15.412Z,2.17
2022-08-11T15:06:20.141Z,2.00
2022-08-11T15:09:23.270Z,2.00
2022-08-11T15:12:32.236Z,1.90
2022-08-11T15:15:54.842Z,1.88
2022-08-11T15:18:58.721Z,1.80
2022-08-11T15:22:24.803Z,2.00
2022-08-11T15:25:34.548Z,2.38
2022-08-11T15:29:00.980Z,2.00
2022-08-11T15:32:21.973Z,1.88
2022-08-11T15:35:43.214Z,2.00
2022-08-11T15:38:54.813Z,1.70
2022-08-11T15:42:20.500Z,2.35
2022-08-11T15:45:43.024Z,1.88
2022-08-11T15:48:49.364Z,1.98
2022-08-11T15:52:01.780Z,1.75
2022-08-11T15:55:09.051Z,2.10
2022-08-11T15:58:31.965Z,1.70
2022-08-11T16:01:54.024Z,2.20
2022-08-11T16:04:59.432Z,2.25
2022-08-11T16:08:03.336Z,2.20
2022-08-11T16:11:09.069Z,1.90
2022-08-11T16:14:31.624Z,1.70
2022-08-11T16:17:39.557Z,1.67
2022-08-11T16:20:42.950Z,1.75
2022-08-11T16:23:49.594Z,2.03
2022-08-11T16:27:10.682Z,2.30
2022-08-11T16:30:16.272Z,2.20
2022-08-11T16:33:50.430Z,1.87
2022-08-11T16:37:03.490Z,2.00
2022-08-11T16:40:09.331Z,2.23
2022-08-11T16:43:35.765Z,1.97
2022-08-11T16:46:56.466Z,2.80
2022-08-11T16:50:00.497Z,2.77
2022-08-11T16:53:04.122Z,2.10
2022-08-11T16:56:08.921Z,2.57
2022-08-11T16:59:20.618Z,2.00
2022-08-11T17:02:40.261Z,2.10
2022-08-11T17:06:06.938Z,2.20
2022-08-11T17:09:29.592Z,2.50
2022-08-11T17:12:52.264Z,2.70
2022-08-11T17:16:12.071Z,2.33
2022-08-11T17:20:42.955Z,2.30
2022-08-11T17:23:02.565Z,2.47
2022-08-11T17:26:05.665Z,2.10
2022-08-11T17:29:09.083Z,2.80
2022-08-11T17:32:56.482Z,2.93
2022-08-11T17:35:58.421Z,2.60
2022-08-11T17:39:01.461Z,2.37
2022-08-11T17:42:23.284Z,2.70
2022-08-11T17:45:55.661Z,5.83
2022-08-11T17:49:00.760Z,3.50
2022-08-11T17:52:22.335Z,2.77
2022-08-11T17:55:52.380Z,3.03
2022-08-11T17:59:14.898Z,2.97
2022-08-11T18:02:34.889Z,2.77
2022-08-11T18:05:43.645Z,2.43
2022-08-11T18:09:05.542Z,2.73
2022-08-11T18:12:27.949Z,3.23
2022-08-11T18:15:49.973Z,2.53
2022-08-11T18:19:16.315Z,2.90
2022-08-11T18:22:41.454Z,2.43
2022-08-11T18:26:07.125Z,2.80
2022-08-11T18:29:29.412Z,2.57
2022-08-11T18:33:09.134Z,2.90
2022-08-11T18:36:40.969Z,2.87
2022-08-11T18:40:06.129Z,2.60
2022-08-11T18:43:30.136Z,2.70
2022-08-11T18:46:56.807Z,2.77
2022-08-11T18:50:21.073Z,2.80
2022-08-11T18:54:02.721Z,2.70
2022-08-11T18:57:26.413Z,2.60
2022-08-11T19:00:48.108Z,2.43
2022-08-11T19:04:11.876Z,2.90
2022-08-11T19:07:39.285Z,2.80
2022-08-11T19:11:02.302Z,2.90
2022-08-11T19:14:25.112Z,3.70
2022-08-11T19:17:47.763Z,3.53
2022-08-11T19:21:10.748Z,4.03
2022-08-11T19:24:32.575Z,3.67
2022-08-11T19:27:53.505Z,3.80
2022-08-11T19:31:16.633Z,3.80
2022-08-11T19:34:39.647Z,3.87
2022-08-11T19:38:01.791Z,3.80
2022-08-11T19:41:52.371Z,3.80
2022-08-11T19:45:05.558Z,3.70
2022-08-11T19:48:32.125Z,3.70
2022-08-11T19:51:55.020Z,3.60
2022-08-11T19:55:16.600Z,3.30
2022-08-11T19:58:37.666Z,3.10
2022-08-11T20:02:05.339Z,3.10
2022-08-11T20:05:36.403Z,3.03
2022-08-11T20:09:00.534Z,3.20
2022-08-11T20:12:24.210Z,3.00
2022-08-11T20:15:46.571Z,3.43
2022-08-11T20:19:09.590Z,3.10
2022-08-11T20:22:34.292Z,3.57
2022-08-11T20:26:08.450Z,3.47
2022-08-11T20:29:37.902Z,2.93
2022-08-11T20:33:05.670Z,3.30
2022-08-11T20:36:26.981Z,3.43
2022-08-11T20:39:50.865Z,2.83
2022-08-11T20:44:04.967Z,3.33
2022-08-11T20:46:54.632Z,3.10
2022-08-11T20:50:20.458Z,3.13
2022-08-11T20:53:42.450Z,2.80
2022-08-11T20:57:05.208Z,2.70
2022-08-11T21:00:39.596Z,3.13
2022-08-11T21:07:44.154Z,2.70
2022-08-11T21:11:27.745Z,3.03
2022-08-11T21:14:51.914Z,3.27
2022-08-11T21:18:28.257Z,3.00
2022-08-11T21:21:51.480Z,3.30
2022-08-11T21:25:16.351Z,3.10
2022-08-11T21:28:38.372Z,3.13
2022-08-11T21:32:01.450Z,3.40
2022-08-11T21:35:22.486Z,4.00
2022-08-11T21:38:43.829Z,3.70
2022-08-11T21:42:05.804Z,3.40
2022-08-11T21:45:29.136Z,3.60
2022-08-11T21:48:52.348Z,3.20
2022-08-11T21:52:12.843Z,3.37
2022-08-11T21:55:33.645Z,3.73
2022-08-11T21:58:55.360Z,3.67
2022-08-11T22:02:16.776Z,3.17
2022-08-11T22:05:38.950Z,3.27
2022-08-11T22:09:01.075Z,3.80
2022-08-11T22:12:34.144Z,3.30
2022-08-11T22:15:55.874Z,3.50
2022-08-11T22:19:17.039Z,3.77
2022-08-11T22:22:51.204Z,3.60
2022-08-11T22:26:14.167Z,3.60
2022-08-11T22:29:42.325Z,3.70
2022-08-11T22:33:11.897Z,3.77
2022-08-11T22:36:36.064Z,3.73
2022-08-11T22:40:02.218Z,3.80
2022-08-11T22:43:23.969Z,3.77
2022-08-11T22:46:45.572Z,3.30
2022-08-11T22:50:11.695Z,3.77
2022-08-11T22:53:58.483Z,3.20
2022-08-11T22:57:16.499Z,3.10
2022-08-11T23:00:36.876Z,3.27
2022-08-11T23:03:58.615Z,3.23
2022-08-11T23:07:50.157Z,3.80
2022-08-11T23:11:03.136Z,3.40
2022-08-11T23:14:25.815Z,3.13
2022-08-11T23:17:51.349Z,3.30
2022-08-11T23:21:12.490Z,3.80
2022-08-11T23:24:33.555Z,3.40
2022-08-11T23:27:55.992Z,3.50
2022-08-11T23:31:19.028Z,3.30
2022-08-11T23:35:04.555Z,3.30
2022-08-11T23:38:23.263Z,3.87
2022-08-11T23:41:44.353Z,3.80
2022-08-11T23:45:04.939Z,3.80
2022-08-11T23:48:31.545Z,3.73
2022-08-11T23:51:52.116Z,3.47
2022-08-11T23:55:13.263Z,4.97
2022-08-11T23:58:34.112Z,3.47
